sensor_id;sensor_type;location;lat;lon;timestamp;temperature;humidity
54540;SHT30;40438;52.992;18.604;2023-09-19T00:00:29;21.31;66.69
54540;SHT30;40438;52.992;18.604;2023-09-19T00:02:57;21.31;66.60
54540;SHT30;40438;52.992;18.604;2023-09-19T00:05:23;21.27;66.76
54540;SHT30;40438;52.992;18.604;2023-09-19T00:07:49;21.20;67.10
54540;SHT30;40438;52.992;18.604;2023-09-19T00:10:15;21.14;67.26
54540;SHT30;40438;52.992;18.604;2023-09-19T00:12:43;21.03;67.55
54540;SHT30;40438;52.992;18.604;2023-09-19T00:15:09;21.01;67.67
54540;SHT30;40438;52.992;18.604;2023-09-19T00:17:35;20.99;67.84
54540;SHT30;40438;52.992;18.604;2023-09-19T00:20:02;20.86;68.34
54540;SHT30;40438;52.992;18.604;2023-09-19T00:22:28;20.87;68.28
54540;SHT30;40438;52.992;18.604;2023-09-19T00:24:54;20.86;68.45
54540;SHT30;40438;52.992;18.604;2023-09-19T00:27:19;20.84;68.47
54540;SHT30;40438;52.992;18.604;2023-09-19T00:29:45;20.83;68.60
54540;SHT30;40438;52.992;18.604;2023-09-19T00:32:11;20.84;68.67
54540;SHT30;40438;52.992;18.604;2023-09-19T00:34:37;20.84;68.65
54540;SHT30;40438;52.992;18.604;2023-09-19T00:37:04;20.87;68.61
54540;SHT30;40438;52.992;18.604;2023-09-19T00:39:30;20.90;68.51
54540;SHT30;40438;52.992;18.604;2023-09-19T00:41:55;20.94;68.43
54540;SHT30;40438;52.992;18.604;2023-09-19T00:44:21;20.89;68.70
54540;SHT30;40438;52.992;18.604;2023-09-19T00:46:47;20.84;68.80
54540;SHT30;40438;52.992;18.604;2023-09-19T00:49:14;20.90;68.61
54540;SHT30;40438;52.992;18.604;2023-09-19T00:51:40;20.86;68.81
54540;SHT30;40438;52.992;18.604;2023-09-19T00:54:07;20.82;68.94
54540;SHT30;40438;52.992;18.604;2023-09-19T00:56:34;20.77;69.09
54540;SHT30;40438;52.992;18.604;2023-09-19T00:59:00;20.80;69.19
54540;SHT30;40438;52.992;18.604;2023-09-19T01:01:27;20.84;69.03
54540;SHT30;40438;52.992;18.604;2023-09-19T01:03:53;20.79;69.15
54540;SHT30;40438;52.992;18.604;2023-09-19T01:06:19;20.76;69.28
54540;SHT30;40438;52.992;18.604;2023-09-19T01:08:45;20.76;69.45
54540;SHT30;40438;52.992;18.604;2023-09-19T01:11:15;20.70;69.57
54540;SHT30;40438;52.992;18.604;2023-09-19T01:13:58;20.66;69.83
54540;SHT30;40438;52.992;18.604;2023-09-19T01:16:36;20.70;69.75
54540;SHT30;40438;52.992;18.604;2023-09-19T01:19:28;20.68;69.86
54540;SHT30;40438;52.992;18.604;2023-09-19T01:22:03;20.68;69.89
54540;SHT30;40438;52.992;18.604;2023-09-19T01:25:03;20.68;69.95
54540;SHT30;40438;52.992;18.604;2023-09-19T01:28:01;20.69;69.99
54540;SHT30;40438;52.992;18.604;2023-09-19T01:30:32;20.69;70.10
54540;SHT30;40438;52.992;18.604;2023-09-19T01:33:02;20.62;70.27
54540;SHT30;40438;52.992;18.604;2023-09-19T01:35:28;20.63;70.32
54540;SHT30;40438;52.992;18.604;2023-09-19T01:37:54;20.66;70.32
54540;SHT30;40438;52.992;18.604;2023-09-19T01:40:21;20.75;70.20
54540;SHT30;40438;52.992;18.604;2023-09-19T01:42:51;20.70;70.21
54540;SHT30;40438;52.992;18.604;2023-09-19T01:45:26;20.69;70.31
54540;SHT30;40438;52.992;18.604;2023-09-19T01:47:55;20.70;70.39
54540;SHT30;40438;52.992;18.604;2023-09-19T01:50:29;20.64;70.67
54540;SHT30;40438;52.992;18.604;2023-09-19T01:53:00;20.68;70.67
54540;SHT30;40438;52.992;18.604;2023-09-19T01:55:28;20.68;70.62
54540;SHT30;40438;52.992;18.604;2023-09-19T01:58:04;20.64;70.70
54540;SHT30;40438;52.992;18.604;2023-09-19T02:00:32;20.60;70.90
54540;SHT30;40438;52.992;18.604;2023-09-19T02:03:01;20.64;70.92
54540;SHT30;40438;52.992;18.604;2023-09-19T02:05:28;20.56;71.30
54540;SHT30;40438;52.992;18.604;2023-09-19T02:07:53;20.52;71.39
54540;SHT30;40438;52.992;18.604;2023-09-19T02:10:19;20.51;71.74
54540;SHT30;40438;52.992;18.604;2023-09-19T02:12:45;20.48;71.83
54540;SHT30;40438;52.992;18.604;2023-09-19T02:15:13;20.48;71.93
54540;SHT30;40438;52.992;18.604;2023-09-19T02:17:39;20.48;72.08
54540;SHT30;40438;52.992;18.604;2023-09-19T02:20:07;20.53;72.02
54540;SHT30;40438;52.992;18.604;2023-09-19T02:22:33;20.55;71.94
54540;SHT30;40438;52.992;18.604;2023-09-19T02:24:59;20.62;71.92
54540;SHT30;40438;52.992;18.604;2023-09-19T02:27:24;20.63;71.91
54540;SHT30;40438;52.992;18.604;2023-09-19T02:29:51;20.64;72.18
54540;SHT30;40438;52.992;18.604;2023-09-19T02:32:17;20.73;72.10
54540;SHT30;40438;52.992;18.604;2023-09-19T02:34:42;20.72;72.24
54540;SHT30;40438;52.992;18.604;2023-09-19T02:37:10;20.75;72.34
54540;SHT30;40438;52.992;18.604;2023-09-19T02:39:35;20.79;72.36
54540;SHT30;40438;52.992;18.604;2023-09-19T02:42:01;20.79;72.40
54540;SHT30;40438;52.992;18.604;2023-09-19T02:44:27;20.77;72.45
54540;SHT30;40438;52.992;18.604;2023-09-19T02:46:53;20.82;72.51
54540;SHT30;40438;52.992;18.604;2023-09-19T02:49:19;20.82;72.54
54540;SHT30;40438;52.992;18.604;2023-09-19T02:51:45;20.86;72.55
54540;SHT30;40438;52.992;18.604;2023-09-19T02:54:12;20.86;72.58
54540;SHT30;40438;52.992;18.604;2023-09-19T02:56:38;20.89;72.61
54540;SHT30;40438;52.992;18.604;2023-09-19T02:59:03;20.97;72.47
54540;SHT30;40438;52.992;18.604;2023-09-19T03:01:29;20.97;72.44
54540;SHT30;40438;52.992;18.604;2023-09-19T03:03:56;20.96;72.51
54540;SHT30;40438;52.992;18.604;2023-09-19T03:06:22;20.89;72.87
54540;SHT30;40438;52.992;18.604;2023-09-19T03:08:47;20.83;72.90
54540;SHT30;40438;52.992;18.604;2023-09-19T03:11:15;20.90;72.70
54540;SHT30;40438;52.992;18.604;2023-09-19T03:13:43;20.87;72.84
54540;SHT30;40438;52.992;18.604;2023-09-19T03:16:08;20.87;72.86
54540;SHT30;40438;52.992;18.604;2023-09-19T03:18:35;20.89;72.76
54540;SHT30;40438;52.992;18.604;2023-09-19T03:21:01;20.93;72.71
54540;SHT30;40438;52.992;18.604;2023-09-19T03:23:29;20.89;72.88
54540;SHT30;40438;52.992;18.604;2023-09-19T03:25:56;20.79;73.41
54540;SHT30;40438;52.992;18.604;2023-09-19T03:28:23;20.79;73.43
54540;SHT30;40438;52.992;18.604;2023-09-19T03:31:00;20.73;73.66
54540;SHT30;40438;52.992;18.604;2023-09-19T03:33:27;20.69;73.83
54540;SHT30;40438;52.992;18.604;2023-09-19T03:35:53;20.66;74.04
54540;SHT30;40438;52.992;18.604;2023-09-19T03:38:20;20.59;74.34
54540;SHT30;40438;52.992;18.604;2023-09-19T03:40:45;20.62;75.77
54540;SHT30;40438;52.992;18.604;2023-09-19T03:43:11;20.48;78.17
54540;SHT30;40438;52.992;18.604;2023-09-19T03:45:39;20.36;79.26
54540;SHT30;40438;52.992;18.604;2023-09-19T03:48:11;20.17;80.18
54540;SHT30;40438;52.992;18.604;2023-09-19T03:50:37;20.10;80.97
54540;SHT30;40438;52.992;18.604;2023-09-19T03:53:03;20.00;81.02
54540;SHT30;40438;52.992;18.604;2023-09-19T03:55:29;19.88;81.82
54540;SHT30;40438;52.992;18.604;2023-09-19T03:57:55;19.83;82.16
54540;SHT30;40438;52.992;18.604;2023-09-19T04:00:21;19.69;82.65
54540;SHT30;40438;52.992;18.604;2023-09-19T04:02:53;19.71;82.85
54540;SHT30;40438;52.992;18.604;2023-09-19T04:05:19;19.66;83.18
54540;SHT30;40438;52.992;18.604;2023-09-19T04:07:45;19.66;83.52
54540;SHT30;40438;52.992;18.604;2023-09-19T04:10:11;19.62;83.76
54540;SHT30;40438;52.992;18.604;2023-09-19T04:12:37;19.50;84.21
54540;SHT30;40438;52.992;18.604;2023-09-19T04:15:04;19.59;84.36
54540;SHT30;40438;52.992;18.604;2023-09-19T04:17:30;19.60;84.03
54540;SHT30;40438;52.992;18.604;2023-09-19T04:19:59;19.56;84.13
54540;SHT30;40438;52.992;18.604;2023-09-19T04:22:25;19.57;84.18
54540;SHT30;40438;52.992;18.604;2023-09-19T04:24:51;19.60;84.12
54540;SHT30;40438;52.992;18.604;2023-09-19T04:27:16;19.54;84.42
54540;SHT30;40438;52.992;18.604;2023-09-19T04:29:42;19.50;84.46
54540;SHT30;40438;52.992;18.604;2023-09-19T04:32:08;19.52;84.60
54540;SHT30;40438;52.992;18.604;2023-09-19T04:34:34;19.53;84.67
54540;SHT30;40438;52.992;18.604;2023-09-19T04:37:02;19.49;84.74
54540;SHT30;40438;52.992;18.604;2023-09-19T04:39:28;19.50;84.91
54540;SHT30;40438;52.992;18.604;2023-09-19T04:41:54;19.52;85.05
54540;SHT30;40438;52.992;18.604;2023-09-19T04:44:20;19.53;85.31
54540;SHT30;40438;52.992;18.604;2023-09-19T04:46:45;19.54;85.08
54540;SHT30;40438;52.992;18.604;2023-09-19T04:49:11;19.57;84.89
54540;SHT30;40438;52.992;18.604;2023-09-19T04:51:37;19.59;84.94
54540;SHT30;40438;52.992;18.604;2023-09-19T04:54:04;19.56;85.00
54540;SHT30;40438;52.992;18.604;2023-09-19T04:56:30;19.54;85.03
54540;SHT30;40438;52.992;18.604;2023-09-19T04:58:56;19.53;85.12
54540;SHT30;40438;52.992;18.604;2023-09-19T05:01:22;19.54;85.25
54540;SHT30;40438;52.992;18.604;2023-09-19T05:03:48;19.53;85.25
54540;SHT30;40438;52.992;18.604;2023-09-19T05:06:13;19.52;85.32
54540;SHT30;40438;52.992;18.604;2023-09-19T05:08:39;19.49;85.37
54540;SHT30;40438;52.992;18.604;2023-09-19T05:11:06;19.47;85.56
54540;SHT30;40438;52.992;18.604;2023-09-19T05:13:32;19.47;85.51
54540;SHT30;40438;52.992;18.604;2023-09-19T05:16:00;19.50;85.56
54540;SHT30;40438;52.992;18.604;2023-09-19T05:18:25;19.43;85.80
54540;SHT30;40438;52.992;18.604;2023-09-19T05:20:51;19.38;86.20
54540;SHT30;40438;52.992;18.604;2023-09-19T05:23:17;19.29;86.47
54540;SHT30;40438;52.992;18.604;2023-09-19T05:25:43;19.29;86.34
54540;SHT30;40438;52.992;18.604;2023-09-19T05:28:10;19.33;86.45
54540;SHT30;40438;52.992;18.604;2023-09-19T05:30:36;19.36;86.43
54540;SHT30;40438;52.992;18.604;2023-09-19T05:33:02;19.39;86.49
54540;SHT30;40438;52.992;18.604;2023-09-19T05:35:28;19.41;86.52
54540;SHT30;40438;52.992;18.604;2023-09-19T05:37:54;19.42;86.35
54540;SHT30;40438;52.992;18.604;2023-09-19T05:40:20;19.42;86.42
54540;SHT30;40438;52.992;18.604;2023-09-19T05:42:46;19.43;86.25
54540;SHT30;40438;52.992;18.604;2023-09-19T05:45:14;19.46;86.23
54540;SHT30;40438;52.992;18.604;2023-09-19T05:47:39;19.53;86.39
54540;SHT30;40438;52.992;18.604;2023-09-19T05:50:06;19.60;85.90
54540;SHT30;40438;52.992;18.604;2023-09-19T05:52:32;19.46;85.83
54540;SHT30;40438;52.992;18.604;2023-09-19T05:54:57;19.53;85.73
54540;SHT30;40438;52.992;18.604;2023-09-19T05:57:23;19.50;85.88
54540;SHT30;40438;52.992;18.604;2023-09-19T05:59:49;19.49;86.06
54540;SHT30;40438;52.992;18.604;2023-09-19T06:02:16;19.57;86.11
54540;SHT30;40438;52.992;18.604;2023-09-19T06:04:42;19.54;85.67
54540;SHT30;40438;52.992;18.604;2023-09-19T06:07:08;19.54;85.82
54540;SHT30;40438;52.992;18.604;2023-09-19T06:09:33;19.60;85.85
54540;SHT30;40438;52.992;18.604;2023-09-19T06:11:59;19.64;85.38
54540;SHT30;40438;52.992;18.604;2023-09-19T06:14:25;19.75;85.02
54540;SHT30;40438;52.992;18.604;2023-09-19T06:16:51;19.69;84.99
54540;SHT30;40438;52.992;18.604;2023-09-19T06:19:18;19.74;84.79
54540;SHT30;40438;52.992;18.604;2023-09-19T06:21:43;19.77;84.76
54540;SHT30;40438;52.992;18.604;2023-09-19T06:24:09;19.75;84.79
54540;SHT30;40438;52.992;18.604;2023-09-19T06:26:35;19.80;84.70
54540;SHT30;40438;52.992;18.604;2023-09-19T06:29:01;19.73;85.05
54540;SHT30;40438;52.992;18.604;2023-09-19T06:31:27;19.90;84.01
54540;SHT30;40438;52.992;18.604;2023-09-19T06:33:52;19.87;84.28
54540;SHT30;40438;52.992;18.604;2023-09-19T06:36:20;19.87;83.80
54540;SHT30;40438;52.992;18.604;2023-09-19T06:38:45;19.87;83.80
54540;SHT30;40438;52.992;18.604;2023-09-19T06:41:11;19.74;84.19
54540;SHT30;40438;52.992;18.604;2023-09-19T06:43:37;19.75;84.08
54540;SHT30;40438;52.992;18.604;2023-09-19T06:46:03;19.83;83.75
54540;SHT30;40438;52.992;18.604;2023-09-19T06:48:29;19.91;83.67
54540;SHT30;40438;52.992;18.604;2023-09-19T06:50:54;19.91;83.16
54540;SHT30;40438;52.992;18.604;2023-09-19T06:53:22;19.90;83.26
54540;SHT30;40438;52.992;18.604;2023-09-19T06:55:48;19.90;83.43
54540;SHT30;40438;52.992;18.604;2023-09-19T06:58:13;19.83;83.71
54540;SHT30;40438;52.992;18.604;2023-09-19T07:00:39;19.87;83.72
54540;SHT30;40438;52.992;18.604;2023-09-19T07:03:06;19.83;83.98
54540;SHT30;40438;52.992;18.604;2023-09-19T07:05:34;19.85;84.02
54540;SHT30;40438;52.992;18.604;2023-09-19T07:08:00;19.97;83.37
54540;SHT30;40438;52.992;18.604;2023-09-19T07:10:27;20.01;83.26
54540;SHT30;40438;52.992;18.604;2023-09-19T07:12:55;19.98;82.52
54540;SHT30;40438;52.992;18.604;2023-09-19T07:15:21;19.94;81.88
54540;SHT30;40438;52.992;18.604;2023-09-19T07:17:47;19.91;82.26
54540;SHT30;40438;52.992;18.604;2023-09-19T07:20:13;19.85;82.32
54540;SHT30;40438;52.992;18.604;2023-09-19T07:22:38;19.74;82.57
54540;SHT30;40438;52.992;18.604;2023-09-19T07:25:05;19.73;82.59
54540;SHT30;40438;52.992;18.604;2023-09-19T07:27:32;19.73;82.42
54540;SHT30;40438;52.992;18.604;2023-09-19T07:29:58;19.75;82.41
54540;SHT30;40438;52.992;18.604;2023-09-19T07:32:23;19.71;81.71
54540;SHT30;40438;52.992;18.604;2023-09-19T07:34:49;19.67;81.90
54540;SHT30;40438;52.992;18.604;2023-09-19T07:37:15;19.62;82.43
54540;SHT30;40438;52.992;18.604;2023-09-19T07:39:41;19.64;82.13
54540;SHT30;40438;52.992;18.604;2023-09-19T07:42:07;19.62;82.47
54540;SHT30;40438;52.992;18.604;2023-09-19T07:44:35;19.59;82.43
54540;SHT30;40438;52.992;18.604;2023-09-19T07:47:00;19.56;82.50
54540;SHT30;40438;52.992;18.604;2023-09-19T07:49:26;19.59;82.28
54540;SHT30;40438;52.992;18.604;2023-09-19T07:51:52;19.53;82.55
54540;SHT30;40438;52.992;18.604;2023-09-19T07:54:18;19.56;82.33
54540;SHT30;40438;52.992;18.604;2023-09-19T07:56:43;19.54;81.82
54540;SHT30;40438;52.992;18.604;2023-09-19T07:59:09;19.53;82.20
54540;SHT30;40438;52.992;18.604;2023-09-19T08:01:36;19.50;82.40
54540;SHT30;40438;52.992;18.604;2023-09-19T08:04:02;19.60;81.45
54540;SHT30;40438;52.992;18.604;2023-09-19T08:06:28;19.66;81.51
54540;SHT30;40438;52.992;18.604;2023-09-19T08:08:54;19.63;81.47
54540;SHT30;40438;52.992;18.604;2023-09-19T08:11:20;19.60;81.77
54540;SHT30;40438;52.992;18.604;2023-09-19T08:13:45;19.53;81.85
54540;SHT30;40438;52.992;18.604;2023-09-19T08:16:11;19.66;81.41
54540;SHT30;40438;52.992;18.604;2023-09-19T08:18:38;19.64;81.71
54540;SHT30;40438;52.992;18.604;2023-09-19T08:21:04;19.64;81.89
54540;SHT30;40438;52.992;18.604;2023-09-19T08:23:30;19.64;81.55
54540;SHT30;40438;52.992;18.604;2023-09-19T08:25:56;19.66;81.54
54540;SHT30;40438;52.992;18.604;2023-09-19T08:28:22;19.64;81.94
54540;SHT30;40438;52.992;18.604;2023-09-19T08:30:48;19.67;82.20
54540;SHT30;40438;52.992;18.604;2023-09-19T08:33:13;19.74;81.80
54540;SHT30;40438;52.992;18.604;2023-09-19T08:35:41;19.70;81.92
54540;SHT30;40438;52.992;18.604;2023-09-19T08:38:06;19.75;80.72
54540;SHT30;40438;52.992;18.604;2023-09-19T08:40:32;19.71;80.98
54540;SHT30;40438;52.992;18.604;2023-09-19T08:42:58;19.71;81.24
54540;SHT30;40438;52.992;18.604;2023-09-19T08:45:25;19.66;80.88
54540;SHT30;40438;52.992;18.604;2023-09-19T08:47:59;19.73;81.07
54540;SHT30;40438;52.992;18.604;2023-09-19T08:50:27;19.60;81.45
54540;SHT30;40438;52.992;18.604;2023-09-19T08:52:56;19.69;81.13
54540;SHT30;40438;52.992;18.604;2023-09-19T08:55:27;19.66;81.58
54540;SHT30;40438;52.992;18.604;2023-09-19T08:57:59;19.63;81.76
54540;SHT30;40438;52.992;18.604;2023-09-19T09:00:26;19.64;81.49
54540;SHT30;40438;52.992;18.604;2023-09-19T09:02:53;19.69;81.50
54540;SHT30;40438;52.992;18.604;2023-09-19T09:05:20;19.63;81.33
54540;SHT30;40438;52.992;18.604;2023-09-19T09:07:46;19.57;81.32
54540;SHT30;40438;52.992;18.604;2023-09-19T09:10:13;19.56;80.69
54540;SHT30;40438;52.992;18.604;2023-09-19T09:12:39;19.45;81.12
54540;SHT30;40438;52.992;18.604;2023-09-19T09:15:06;19.46;81.39
54540;SHT30;40438;52.992;18.604;2023-09-19T09:17:32;19.43;81.50
54540;SHT30;40438;52.992;18.604;2023-09-19T09:19:58;19.43;81.59
54540;SHT30;40438;52.992;18.604;2023-09-19T09:22:24;19.49;81.24
54540;SHT30;40438;52.992;18.604;2023-09-19T09:24:53;19.53;81.31
54540;SHT30;40438;52.992;18.604;2023-09-19T09:27:21;19.60;80.87
54540;SHT30;40438;52.992;18.604;2023-09-19T09:29:48;19.75;81.03
54540;SHT30;40438;52.992;18.604;2023-09-19T09:32:21;20.05;79.94
54540;SHT30;40438;52.992;18.604;2023-09-19T09:34:49;20.25;78.60
54540;SHT30;40438;52.992;18.604;2023-09-19T09:37:15;20.36;77.89
54540;SHT30;40438;52.992;18.604;2023-09-19T09:39:49;20.57;77.65
54540;SHT30;40438;52.992;18.604;2023-09-19T09:42:30;20.77;76.55
54540;SHT30;40438;52.992;18.604;2023-09-19T09:45:12;20.96;76.39
54540;SHT30;40438;52.992;18.604;2023-09-19T09:47:41;21.15;75.97
54540;SHT30;40438;52.992;18.604;2023-09-19T09:50:07;21.20;74.58
54540;SHT30;40438;52.992;18.604;2023-09-19T09:52:44;21.17;74.07
54540;SHT30;40438;52.992;18.604;2023-09-19T09:55:10;21.07;73.99
54540;SHT30;40438;52.992;18.604;2023-09-19T09:57:37;21.06;74.08
54540;SHT30;40438;52.992;18.604;2023-09-19T10:00:04;21.08;73.05
54540;SHT30;40438;52.992;18.604;2023-09-19T10:02:37;21.14;71.84
54540;SHT30;40438;52.992;18.604;2023-09-19T10:05:11;21.17;71.83
54540;SHT30;40438;52.992;18.604;2023-09-19T10:07:38;21.00;72.99
54540;SHT30;40438;52.992;18.604;2023-09-19T10:10:04;21.01;72.61
54540;SHT30;40438;52.992;18.604;2023-09-19T10:12:31;21.06;72.48
54540;SHT30;40438;52.992;18.604;2023-09-19T10:15:00;21.08;71.93
54540;SHT30;40438;52.992;18.604;2023-09-19T10:17:29;21.10;71.55
54540;SHT30;40438;52.992;18.604;2023-09-19T10:19:56;21.06;71.66
54540;SHT30;40438;52.992;18.604;2023-09-19T10:22:22;21.11;71.79
54540;SHT30;40438;52.992;18.604;2023-09-19T10:24:49;21.13;71.66
54540;SHT30;40438;52.992;18.604;2023-09-19T10:27:15;21.24;71.70
54540;SHT30;40438;52.992;18.604;2023-09-19T10:29:43;21.31;70.86
54540;SHT30;40438;52.992;18.604;2023-09-19T10:32:13;21.45;70.68
54540;SHT30;40438;52.992;18.604;2023-09-19T10:34:41;21.47;70.89
54540;SHT30;40438;52.992;18.604;2023-09-19T10:37:08;21.47;70.97
54540;SHT30;40438;52.992;18.604;2023-09-19T10:39:35;21.68;70.17
54540;SHT30;40438;52.992;18.604;2023-09-19T10:42:03;21.80;69.31
54540;SHT30;40438;52.992;18.604;2023-09-19T10:44:32;21.92;68.86
54540;SHT30;40438;52.992;18.604;2023-09-19T10:46:58;22.05;68.30
54540;SHT30;40438;52.992;18.604;2023-09-19T10:49:25;21.99;68.99
54540;SHT30;40438;52.992;18.604;2023-09-19T10:51:53;22.09;68.42
54540;SHT30;40438;52.992;18.604;2023-09-19T10:54:21;22.06;68.05
54540;SHT30;40438;52.992;18.604;2023-09-19T10:56:49;22.02;68.29
54540;SHT30;40438;52.992;18.604;2023-09-19T10:59:16;22.09;67.43
54540;SHT30;40438;52.992;18.604;2023-09-19T11:01:43;21.96;68.19
54540;SHT30;40438;52.992;18.604;2023-09-19T11:04:23;22.03;67.95
54540;SHT30;40438;52.992;18.604;2023-09-19T11:07:01;22.13;67.57
54540;SHT30;40438;52.992;18.604;2023-09-19T11:09:43;22.03;68.03
54540;SHT30;40438;52.992;18.604;2023-09-19T11:12:09;22.05;68.05
54540;SHT30;40438;52.992;18.604;2023-09-19T11:14:41;22.02;67.72
54540;SHT30;40438;52.992;18.604;2023-09-19T11:17:41;21.78;66.64
54540;SHT30;40438;52.992;18.604;2023-09-19T11:20:22;21.69;66.85
54540;SHT30;40438;52.992;18.604;2023-09-19T11:23:21;21.75;67.11
54540;SHT30;40438;52.992;18.604;2023-09-19T11:25:47;22.05;67.08
54540;SHT30;40438;52.992;18.604;2023-09-19T11:28:35;22.36;66.47
54540;SHT30;40438;52.992;18.604;2023-09-19T11:36:59;23.23;62.22
54540;SHT30;40438;52.992;18.604;2023-09-19T11:39:26;23.39;61.36
54540;SHT30;40438;52.992;18.604;2023-09-19T11:41:52;23.81;59.25
54540;SHT30;40438;52.992;18.604;2023-09-19T11:44:34;24.25;55.88
54540;SHT30;40438;52.992;18.604;2023-09-19T11:47:01;24.08;56.06
54540;SHT30;40438;52.992;18.604;2023-09-19T11:49:29;24.05;56.01
54540;SHT30;40438;52.992;18.604;2023-09-19T11:51:56;24.25;55.64
54540;SHT30;40438;52.992;18.604;2023-09-19T11:54:22;24.46;53.97
54540;SHT30;40438;52.992;18.604;2023-09-19T11:56:50;24.66;51.83
54540;SHT30;40438;52.992;18.604;2023-09-19T11:59:20;24.69;52.11
54540;SHT30;40438;52.992;18.604;2023-09-19T12:01:51;24.97;52.48
54540;SHT30;40438;52.992;18.604;2023-09-19T12:04:34;24.66;50.86
54540;SHT30;40438;52.992;18.604;2023-09-19T12:07:00;24.76;50.00
54540;SHT30;40438;52.992;18.604;2023-09-19T12:09:25;24.51;50.30
54540;SHT30;40438;52.992;18.604;2023-09-19T12:11:53;24.64;50.67
54540;SHT30;40438;52.992;18.604;2023-09-19T12:14:22;24.63;50.74
54540;SHT30;40438;52.992;18.604;2023-09-19T12:16:51;24.63;51.48
54540;SHT30;40438;52.992;18.604;2023-09-19T12:19:18;24.55;52.23
54540;SHT30;40438;52.992;18.604;2023-09-19T12:21:44;24.43;52.27
54540;SHT30;40438;52.992;18.604;2023-09-19T12:24:12;24.19;53.38
54540;SHT30;40438;52.992;18.604;2023-09-19T12:26:39;24.22;53.65
54540;SHT30;40438;52.992;18.604;2023-09-19T12:29:11;24.09;53.92
54540;SHT30;40438;52.992;18.604;2023-09-19T12:31:37;23.90;54.36
54540;SHT30;40438;52.992;18.604;2023-09-19T12:34:16;23.60;55.46
54540;SHT30;40438;52.992;18.604;2023-09-19T12:36:42;23.39;55.64
54540;SHT30;40438;52.992;18.604;2023-09-19T12:39:07;23.30;56.10
54540;SHT30;40438;52.992;18.604;2023-09-19T12:41:33;23.33;55.78
54540;SHT30;40438;52.992;18.604;2023-09-19T12:43:59;23.37;55.79
54540;SHT30;40438;52.992;18.604;2023-09-19T12:46:26;23.46;55.96
54540;SHT30;40438;52.992;18.604;2023-09-19T12:49:16;23.58;55.99
54540;SHT30;40438;52.992;18.604;2023-09-19T12:51:42;23.88;53.48
54540;SHT30;40438;52.992;18.604;2023-09-19T12:54:08;23.91;52.40
54540;SHT30;40438;52.992;18.604;2023-09-19T12:56:40;23.98;52.73
54540;SHT30;40438;52.992;18.604;2023-09-19T12:59:05;23.97;52.34
54540;SHT30;40438;52.992;18.604;2023-09-19T13:01:33;23.84;52.29
54540;SHT30;40438;52.992;18.604;2023-09-19T13:04:12;23.60;53.00
54540;SHT30;40438;52.992;18.604;2023-09-19T13:06:37;23.49;52.92
54540;SHT30;40438;52.992;18.604;2023-09-19T13:09:08;23.47;52.33
54540;SHT30;40438;52.992;18.604;2023-09-19T13:11:36;23.57;52.57
54540;SHT30;40438;52.992;18.604;2023-09-19T13:14:15;23.85;51.18
54540;SHT30;40438;52.992;18.604;2023-09-19T13:16:58;24.19;49.93
54540;SHT30;40438;52.992;18.604;2023-09-19T13:24:51;25.39;47.77
54540;SHT30;40438;52.992;18.604;2023-09-19T13:27:16;25.63;45.25
54540;SHT30;40438;52.992;18.604;2023-09-19T13:29:42;25.82;44.17
54540;SHT30;40438;52.992;18.604;2023-09-19T13:32:09;26.13;44.04
54540;SHT30;40438;52.992;18.604;2023-09-19T13:34:35;26.23;42.95
54540;SHT30;40438;52.992;18.604;2023-09-19T13:37:01;26.30;42.15
54540;SHT30;40438;52.992;18.604;2023-09-19T13:39:27;26.23;41.72
54540;SHT30;40438;52.992;18.604;2023-09-19T13:41:52;26.13;41.58
54540;SHT30;40438;52.992;18.604;2023-09-19T13:44:18;25.62;42.93
54540;SHT30;40438;52.992;18.604;2023-09-19T13:46:44;25.24;44.15
54540;SHT30;40438;52.992;18.604;2023-09-19T13:49:11;25.10;45.12
54540;SHT30;40438;52.992;18.604;2023-09-19T13:51:37;25.01;46.04
54540;SHT30;40438;52.992;18.604;2023-09-19T13:54:03;25.06;46.56
54540;SHT30;40438;52.992;18.604;2023-09-19T13:56:29;25.25;46.38
54540;SHT30;40438;52.992;18.604;2023-09-19T13:58:54;25.24;46.72
54540;SHT30;40438;52.992;18.604;2023-09-19T14:01:20;25.32;45.24
54540;SHT30;40438;52.992;18.604;2023-09-19T14:03:46;25.42;43.03
54540;SHT30;40438;52.992;18.604;2023-09-19T14:06:13;25.49;43.12
54540;SHT30;40438;52.992;18.604;2023-09-19T14:08:39;25.59;42.25
54540;SHT30;40438;52.992;18.604;2023-09-19T14:11:05;25.78;41.34
54540;SHT30;40438;52.992;18.604;2023-09-19T14:13:31;25.99;39.92
54540;SHT30;40438;52.992;18.604;2023-09-19T14:15:57;25.82;39.28
54540;SHT30;40438;52.992;18.604;2023-09-19T14:18:23;25.86;39.62
54540;SHT30;40438;52.992;18.604;2023-09-19T14:20:48;25.83;39.49
54540;SHT30;40438;52.992;18.604;2023-09-19T14:23:16;25.83;39.66
54540;SHT30;40438;52.992;18.604;2023-09-19T14:25:41;25.82;39.76
54540;SHT30;40438;52.992;18.604;2023-09-19T14:28:07;25.81;40.26
54540;SHT30;40438;52.992;18.604;2023-09-19T14:30:33;25.65;40.54
54540;SHT30;40438;52.992;18.604;2023-09-19T14:32:59;25.63;40.96
54540;SHT30;40438;52.992;18.604;2023-09-19T14:35:25;25.62;41.31
54540;SHT30;40438;52.992;18.604;2023-09-19T14:37:50;25.61;41.53
54540;SHT30;40438;52.992;18.604;2023-09-19T14:40:18;25.27;42.88
54540;SHT30;40438;52.992;18.604;2023-09-19T14:42:43;25.34;42.51
54540;SHT30;40438;52.992;18.604;2023-09-19T14:45:10;25.38;42.39
54540;SHT30;40438;52.992;18.604;2023-09-19T14:47:36;25.34;42.62
54540;SHT30;40438;52.992;18.604;2023-09-19T14:50:02;25.45;42.66
54540;SHT30;40438;52.992;18.604;2023-09-19T14:52:28;25.42;43.09
54540;SHT30;40438;52.992;18.604;2023-09-19T14:54:54;25.46;42.29
54540;SHT30;40438;52.992;18.604;2023-09-19T14:57:21;25.38;43.09
54540;SHT30;40438;52.992;18.604;2023-09-19T14:59:46;25.14;42.84
54540;SHT30;40438;52.992;18.604;2023-09-19T15:02:12;25.07;43.39
54540;SHT30;40438;52.992;18.604;2023-09-19T15:04:38;24.99;43.10
54540;SHT30;40438;52.992;18.604;2023-09-19T15:07:04;24.73;43.04
54540;SHT30;40438;52.992;18.604;2023-09-19T15:09:30;24.26;43.92
54540;SHT30;40438;52.992;18.604;2023-09-19T15:11:55;23.78;45.21
54540;SHT30;40438;52.992;18.604;2023-09-19T15:14:24;23.51;45.86
54540;SHT30;40438;52.992;18.604;2023-09-19T15:16:50;23.20;46.65
54540;SHT30;40438;52.992;18.604;2023-09-19T15:19:16;23.26;46.91
54540;SHT30;40438;52.992;18.604;2023-09-19T15:21:42;23.33;47.11
54540;SHT30;40438;52.992;18.604;2023-09-19T15:24:08;23.26;47.33
54540;SHT30;40438;52.992;18.604;2023-09-19T15:26:34;23.32;47.58
54540;SHT30;40438;52.992;18.604;2023-09-19T15:28:59;23.27;47.44